Time;durP1;ratioP1;P1;durP2;ratioP2;P2;SDS_P1;SDS_P2;PMS_P1;PMS_P2;Temp;Humidity;BMP_temperature;BMP_pressure;BME280_temperature;BME280_humidity;BME280_pressure;Samples;Min_cycle;Max_cycle;Signal;HPM_P1;HPM_P2
2022/05/04 00:00:49;;;;;;;2.50;2.30;;;13.10;99.90;;;;;;5010104;28;20378;-83
2022/05/04 00:03:15;;;;;;;2.60;2.40;;;12.90;99.90;;;;;;5012877;28;20887;-83
2022/05/04 00:05:41;;;;;;;2.58;2.38;;;13.00;99.90;;;;;;5012660;28;20385;-83
2022/05/04 00:08:08;;;;;;;2.88;2.50;;;13.00;99.90;;;;;;5010033;28;20475;-83
2022/05/04 00:10:34;;;;;;;2.90;2.08;;;13.10;99.90;;;;;;5012736;28;20400;-83
2022/05/04 00:13:01;;;;;;;2.60;2.40;;;13.00;99.90;;;;;;5012234;28;20404;-83
2022/05/04 00:15:27;;;;;;;2.90;2.60;;;12.70;99.90;;;;;;5012844;28;20388;-83
2022/05/04 00:17:53;;;;;;;2.88;2.50;;;12.70;99.90;;;;;;5012730;28;20503;-84
2022/05/04 00:20:19;;;;;;;2.80;2.60;;;12.70;99.90;;;;;;5012870;28;20421;-83
2022/05/04 00:22:45;;;;;;;2.67;2.22;;;12.50;99.90;;;;;;5012797;28;20400;-82
2022/05/04 00:25:11;;;;;;;2.30;2.10;;;12.50;99.90;;;;;;5012811;28;20468;-82
2022/05/04 00:27:37;;;;;;;2.40;2.20;;;12.70;99.90;;;;;;5009274;28;20473;-83
2022/05/04 00:30:04;;;;;;;2.38;2.25;;;12.40;99.90;;;;;;5012957;28;20476;-83
2022/05/04 00:32:30;;;;;;;2.70;2.50;;;12.20;99.90;;;;;;5012447;28;20385;-83
2022/05/04 00:34:56;;;;;;;3.17;2.87;;;12.40;99.90;;;;;;5012535;28;20855;-83
2022/05/04 00:37:22;;;;;;;3.40;2.38;;;12.50;99.90;;;;;;5012672;28;20420;-83
2022/05/04 00:39:48;;;;;;;3.27;2.20;;;12.10;99.90;;;;;;5012683;28;20392;-82
2022/05/04 00:42:19;;;;;;;2.37;2.20;;;12.40;99.90;;;;;;5012591;28;20384;-83
2022/05/04 00:44:47;;;;;;;2.38;2.17;;;12.40;99.90;;;;;;5012110;28;20853;-83
2022/05/04 00:47:14;;;;;;;2.67;2.33;;;12.40;99.90;;;;;;5012466;28;20904;-82
2022/05/04 00:49:41;;;;;;;2.83;2.50;;;12.40;99.90;;;;;;5012304;28;20865;-82
2022/05/04 00:52:09;;;;;;;2.30;2.20;;;12.00;99.90;;;;;;5012395;28;20439;-82
2022/05/04 00:54:36;;;;;;;2.40;2.20;;;12.00;99.90;;;;;;5012078;28;20798;-83
2022/05/04 00:57:04;;;;;;;2.60;2.40;;;12.00;99.90;;;;;;5012260;28;20456;-84
2022/05/04 00:59:31;;;;;;;2.47;2.28;;;11.90;99.90;;;;;;5012346;28;20388;-83
2022/05/04 01:01:57;;;;;;;2.55;2.40;;;11.80;99.90;;;;;;5012163;28;20389;-83
2022/05/04 01:04:24;;;;;;;2.30;2.20;;;11.60;99.90;;;;;;5012140;28;20392;-83
2022/05/04 01:06:50;;;;;;;2.35;2.22;;;11.70;99.90;;;;;;5011979;28;20389;-83
2022/05/04 01:09:16;;;;;;;2.80;2.60;;;11.90;99.90;;;;;;5012262;28;20388;-83
2022/05/04 01:11:43;;;;;;;2.50;2.30;;;12.00;99.90;;;;;;5012157;28;20388;-82
2022/05/04 01:14:11;;;;;;;2.80;2.60;;;12.00;99.90;;;;;;5012142;28;20396;-83
2022/05/04 01:16:39;;;;;;;5.50;2.80;;;11.90;99.90;;;;;;5012234;28;20385;-83
2022/05/04 01:19:05;;;;;;;2.83;2.63;;;12.30;99.90;;;;;;5012220;28;20403;-83
2022/05/04 01:21:30;;;;;;;2.97;2.72;;;12.00;99.90;;;;;;5012151;28;20933;-83
2022/05/04 01:24:00;;;;;;;2.40;2.30;;;11.90;99.90;;;;;;5011957;28;20385;-83
2022/05/04 01:26:26;;;;;;;2.65;2.45;;;11.80;99.90;;;;;;5012185;28;20380;-84
2022/05/04 01:28:52;;;;;;;2.65;2.55;;;11.70;99.90;;;;;;5011922;28;20476;-83
2022/05/04 01:31:17;;;;;;;2.50;2.30;;;11.70;99.90;;;;;;5012213;28;20870;-83
2022/05/04 01:33:43;;;;;;;3.40;2.83;;;11.70;99.90;;;;;;5010749;28;20451;-83
2022/05/04 01:36:09;;;;;;;3.00;2.80;;;11.50;99.90;;;;;;5009494;28;20416;-83
2022/05/04 01:38:35;;;;;;;2.70;2.50;;;11.50;99.90;;;;;;5010350;28;20423;-84
2022/05/04 01:41:02;;;;;;;2.80;2.60;;;11.50;99.90;;;;;;5013544;28;20419;-83
2022/05/04 01:43:28;;;;;;;3.10;2.80;;;11.60;99.90;;;;;;5014191;28;20385;-83
2022/05/04 01:45:54;;;;;;;2.55;2.45;;;11.40;99.90;;;;;;5015364;28;20388;-83
2022/05/04 01:48:23;;;;;;;3.00;2.80;;;11.10;99.90;;;;;;5015360;28;20392;-83
2022/05/04 01:50:49;;;;;;;3.30;3.10;;;11.30;99.90;;;;;;5014573;28;20404;-82
2022/05/04 01:53:14;;;;;;;3.10;2.90;;;10.90;99.90;;;;;;5015362;28;20385;-83
2022/05/04 01:55:41;;;;;;;3.13;2.90;;;11.00;99.90;;;;;;5015300;28;20762;-82
2022/05/04 01:58:07;;;;;;;3.78;2.78;;;11.00;99.90;;;;;;5015136;28;20408;-83
2022/05/04 02:00:34;;;;;;;3.22;3.03;;;11.20;99.90;;;;;;5015494;28;20471;-82
2022/05/04 02:02:59;;;;;;;3.43;3.13;;;11.40;99.90;;;;;;5008536;28;20387;-83
2022/05/04 02:05:27;;;;;;;2.90;2.70;;;11.10;99.90;;;;;;5014534;28;20383;-83
2022/05/04 02:07:54;;;;;;;2.90;2.70;;;11.00;99.90;;;;;;5015328;28;20407;-83
2022/05/04 02:10:20;;;;;;;2.80;2.60;;;10.90;99.90;;;;;;5015029;28;20416;-83
2022/05/04 02:12:45;;;;;;;3.30;3.10;;;11.00;99.90;;;;;;5015235;28;20428;-83
2022/05/04 02:15:11;;;;;;;3.20;3.00;;;10.80;99.90;;;;;;5014589;28;20866;-83
2022/05/04 02:17:38;;;;;;;3.25;2.97;;;10.80;99.90;;;;;;5014551;28;20479;-82
2022/05/04 02:20:04;;;;;;;3.17;2.97;;;11.00;99.90;;;;;;5014838;28;20395;-83
2022/05/04 02:22:30;;;;;;;3.03;2.83;;;11.00;99.90;;;;;;5030010;28;20882;-83
2022/05/04 02:24:56;;;;;;;2.72;2.53;;;11.00;99.90;;;;;;5014801;28;20472;-83
2022/05/04 02:27:22;;;;;;;3.05;2.85;;;11.10;99.90;;;;;;5014729;28;20881;-83
2022/05/04 02:29:48;;;;;;;3.35;3.15;;;11.00;99.90;;;;;;5014648;28;20421;-83
2022/05/04 02:32:14;;;;;;;3.33;3.10;;;11.10;99.90;;;;;;5011533;28;20480;-82
2022/05/04 02:40:09;;;;;;;3.13;2.92;;;11.10;99.90;;;;;;5014816;28;20876;-83
2022/05/04 02:42:36;;;;;;;2.85;2.65;;;11.10;99.90;;;;;;5014419;28;20385;-82
2022/05/04 02:45:02;;;;;;;3.05;2.83;;;11.10;99.90;;;;;;5014399;28;20479;-83
2022/05/04 02:47:28;;;;;;;2.50;2.30;;;11.40;99.90;;;;;;5014350;28;20396;-83
2022/05/04 02:49:53;;;;;;;3.13;2.83;;;11.40;99.90;;;;;;5014221;28;20380;-83
2022/05/04 02:52:19;;;;;;;2.60;2.40;;;11.40;99.90;;;;;;5013497;28;20472;-82
2022/05/04 02:54:45;;;;;;;3.00;2.63;;;11.40;99.90;;;;;;5012755;28;20444;-82
2022/05/04 02:57:10;;;;;;;3.00;2.80;;;11.30;99.90;;;;;;5014151;28;20416;-84
2022/05/04 02:59:36;;;;;;;3.10;2.90;;;10.80;99.90;;;;;;5014151;28;20849;-83
2022/05/04 03:04:45;;;;;;;4.97;3.10;;;11.10;99.90;;;;;;5013923;28;20974;-83
2022/05/04 03:07:11;;;;;;;3.17;2.87;;;11.00;99.90;;;;;;5012733;28;20401;-83
2022/05/04 03:09:37;;;;;;;2.80;2.60;;;11.30;99.90;;;;;;5014002;28;20436;-83
2022/05/04 03:12:02;;;;;;;3.57;2.60;;;11.00;99.90;;;;;;5013440;28;20424;-82
2022/05/04 03:14:28;;;;;;;3.13;2.83;;;11.00;99.90;;;;;;5013747;28;20411;-82
2022/05/04 03:16:55;;;;;;;2.73;2.53;;;11.00;99.90;;;;;;5013746;28;20396;-82
2022/05/04 03:19:21;;;;;;;3.47;2.60;;;10.90;99.90;;;;;;5013793;28;20392;-83
2022/05/04 03:21:47;;;;;;;2.88;2.67;;;10.90;99.90;;;;;;5013678;28;20387;-83
2022/05/04 03:24:13;;;;;;;2.70;2.50;;;10.80;99.90;;;;;;5013760;28;20442;-82
2022/05/04 03:26:39;;;;;;;3.00;2.80;;;10.90;99.90;;;;;;5013634;28;20388;-83
2022/05/04 03:29:06;;;;;;;2.75;2.55;;;10.90;99.90;;;;;;5013468;28;20389;-82
2022/05/04 03:31:32;;;;;;;2.90;2.70;;;10.60;99.90;;;;;;5013612;28;20797;-83
2022/05/04 03:33:57;;;;;;;2.80;2.60;;;10.60;99.90;;;;;;5013511;28;20389;-83
2022/05/04 03:36:23;;;;;;;2.95;2.75;;;10.50;99.90;;;;;;5013362;28;20439;-83
2022/05/04 03:38:49;;;;;;;3.30;3.00;;;10.60;99.90;;;;;;5013315;28;20850;-83
2022/05/04 03:41:15;;;;;;;3.37;2.77;;;10.20;99.90;;;;;;5013375;28;20889;-83
2022/05/04 03:43:41;;;;;;;2.93;2.73;;;10.50;99.90;;;;;;5013354;28;20392;-83
2022/05/04 03:46:15;;;;;;;2.92;2.72;;;10.30;99.90;;;;;;5013227;28;20468;-82
2022/05/04 03:48:42;;;;;;;3.00;2.80;;;10.70;99.90;;;;;;5013400;28;20391;-82
2022/05/04 03:51:08;;;;;;;3.13;2.87;;;10.70;99.90;;;;;;5013338;28;20424;-83
2022/05/04 03:53:34;;;;;;;2.97;2.78;;;10.40;99.90;;;;;;5013198;28;20382;-83
2022/05/04 03:56:00;;;;;;;3.08;2.78;;;10.20;99.90;;;;;;5013040;28;20458;-82
2022/05/04 03:58:26;;;;;;;3.10;2.80;;;10.40;99.90;;;;;;5010899;28;20408;-82
2022/05/04 04:00:51;;;;;;;4.03;2.90;;;10.60;99.90;;;;;;5012932;28;20389;-82
2022/05/04 04:03:17;;;;;;;2.77;2.57;;;10.50;99.90;;;;;;5010804;28;20393;-83
2022/05/04 04:05:42;;;;;;;2.87;2.63;;;10.30;99.90;;;;;;5009423;28;20888;-82
2022/05/04 04:08:08;;;;;;;3.03;2.83;;;10.10;99.90;;;;;;5013016;28;20387;-82
2022/05/04 04:10:34;;;;;;;2.87;2.63;;;10.20;99.90;;;;;;5009671;28;20486;-82
2022/05/04 04:12:59;;;;;;;4.28;3.70;;;10.20;99.90;;;;;;5012100;28;20890;-82
2022/05/04 04:15:25;;;;;;;3.90;3.60;;;10.30;99.90;;;;;;5012639;28;20456;-83
2022/05/04 04:17:50;;;;;;;3.92;3.63;;;10.20;99.90;;;;;;5012575;28;20495;-83
2022/05/04 04:23:01;;;;;;;3.45;3.15;;;10.00;99.90;;;;;;5012948;28;20384;-83
2022/05/04 04:25:26;;;;;;;3.17;2.90;;;10.10;99.90;;;;;;5012609;28;20377;-83
2022/05/04 04:27:52;;;;;;;3.40;3.20;;;10.10;99.90;;;;;;5012785;28;20431;-82
2022/05/04 04:30:17;;;;;;;3.50;3.20;;;10.10;99.90;;;;;;5011132;28;20388;-85
2022/05/04 04:32:43;;;;;;;3.40;3.20;;;10.10;99.90;;;;;;5012551;28;20393;-83
2022/05/04 04:35:09;;;;;;;3.43;3.17;;;10.40;99.90;;;;;;5012552;28;20384;-82
2022/05/04 04:37:34;;;;;;;3.23;3.03;;;9.60;99.90;;;;;;5012378;28;20413;-82
2022/05/04 04:40:00;;;;;;;3.33;3.03;;;10.10;99.90;;;;;;5012540;28;20782;-83
2022/05/04 04:42:25;;;;;;;3.57;3.30;;;10.50;99.90;;;;;;5012345;28;20376;-82
2022/05/04 04:44:51;;;;;;;3.10;2.90;;;10.10;99.90;;;;;;5012700;28;20392;-83
2022/05/04 04:47:17;;;;;;;3.47;3.27;;;10.30;99.90;;;;;;5012261;28;20412;-82
2022/05/04 04:49:42;;;;;;;4.38;3.40;;;10.60;99.90;;;;;;5012266;28;20396;-82
2022/05/04 04:52:08;;;;;;;3.70;3.40;;;10.30;99.90;;;;;;5012343;28;20392;-82
2022/05/04 04:54:33;;;;;;;3.38;3.17;;;10.20;99.90;;;;;;5012378;28;20878;-83
2022/05/04 04:56:59;;;;;;;3.30;3.10;;;10.20;99.90;;;;;;5012267;28;20400;-83
2022/05/04 04:59:25;;;;;;;4.00;3.63;;;10.40;99.90;;;;;;5012349;28;20476;-82
2022/05/04 05:01:50;;;;;;;3.50;3.20;;;10.90;99.90;;;;;;5012207;28;20381;-82
2022/05/04 05:04:16;;;;;;;3.57;3.33;;;10.60;99.90;;;;;;5012163;28;20384;-83
2022/05/04 05:06:42;;;;;;;3.60;3.30;;;10.50;99.90;;;;;;5012139;28;20388;-82
2022/05/04 05:09:07;;;;;;;3.60;3.30;;;10.30;99.90;;;;;;5012376;28;20388;-83
2022/05/04 05:11:33;;;;;;;3.65;3.35;;;10.60;99.90;;;;;;5012240;28;20397;-83
2022/05/04 05:16:43;;;;;;;3.50;3.20;;;10.70;99.90;;;;;;5015287;28;20443;-82
2022/05/04 05:19:09;;;;;;;3.50;3.30;;;10.50;99.90;;;;;;5015920;28;20385;-83
2022/05/04 05:21:34;;;;;;;3.60;3.30;;;10.70;99.90;;;;;;5015884;28;20468;-83
2022/05/04 05:24:00;;;;;;;3.40;3.20;;;11.00;99.90;;;;;;5015806;28;20465;-82
2022/05/04 05:26:25;;;;;;;3.58;3.25;;;10.90;99.90;;;;;;5015823;28;20460;-82
2022/05/04 05:28:51;;;;;;;4.95;4.38;;;10.70;99.90;;;;;;5015667;28;20393;-82
2022/05/04 05:31:17;;;;;;;3.70;3.40;;;10.90;99.90;;;;;;5016058;28;20408;-83
2022/05/04 05:33:45;;;;;;;3.20;3.00;;;10.70;99.90;;;;;;5015483;28;20455;-82
2022/05/04 05:36:10;;;;;;;3.42;3.13;;;11.00;99.90;;;;;;5015646;28;20484;-82
2022/05/04 05:38:36;;;;;;;3.67;3.27;;;11.30;99.90;;;;;;5015885;28;20867;-83
2022/05/04 05:41:02;;;;;;;3.40;3.10;;;10.90;99.90;;;;;;5015588;28;20758;-83
2022/05/04 05:43:28;;;;;;;3.90;3.60;;;11.20;99.90;;;;;;5015374;28;20471;-84
2022/05/04 05:45:54;;;;;;;4.70;3.42;;;11.40;99.90;;;;;;5015464;28;20849;-83
2022/05/04 05:48:20;;;;;;;3.75;3.55;;;10.90;99.90;;;;;;5013153;28;20408;-83
2022/05/04 05:50:49;;;;;;;4.10;3.80;;;10.90;99.90;;;;;;5014367;28;20389;-83
2022/05/04 05:53:14;;;;;;;4.60;4.20;;;10.60;99.90;;;;;;5000006;28;20396;-84
2022/05/04 05:55:43;;;;;;;4.40;4.10;;;10.20;99.90;;;;;;4995498;28;20414;-84
2022/05/04 05:58:10;;;;;;;4.07;3.70;;;10.40;99.90;;;;;;4995694;28;20764;-84
2022/05/04 06:00:36;;;;;;;4.10;3.80;;;10.60;99.90;;;;;;4998657;28;20521;-84
2022/05/04 06:03:02;;;;;;;3.72;3.42;;;11.00;99.90;;;;;;5003289;28;20521;-86
2022/05/04 06:05:28;;;;;;;7.88;4.15;;;11.20;99.90;;;;;;5010245;28;20386;-83
2022/05/04 06:07:53;;;;;;;4.30;4.00;;;11.50;99.90;;;;;;5006055;28;20393;-83
2022/05/04 06:10:19;;;;;;;5.33;4.93;;;11.30;99.90;;;;;;5011079;28;20770;-84
2022/05/04 06:12:45;;;;;;;4.93;4.63;;;11.40;99.90;;;;;;5009055;28;20418;-84
2022/05/04 06:15:11;;;;;;;4.93;4.30;;;11.40;99.90;;;;;;5009157;28;20393;-85
2022/05/04 06:17:38;;;;;;;5.20;4.70;;;11.60;99.90;;;;;;4994456;28;20899;-85
2022/05/04 06:20:05;;;;;;;5.00;4.38;;;11.70;99.90;;;;;;5009062;28;20455;-85
2022/05/04 06:22:31;;;;;;;4.55;4.13;;;11.80;99.90;;;;;;5014571;28;20400;-85
2022/05/04 06:24:56;;;;;;;5.23;4.83;;;11.90;99.90;;;;;;5012498;28;20770;-85
2022/05/04 06:27:22;;;;;;;5.10;4.60;;;12.00;99.90;;;;;;5015919;28;20392;-85
2022/05/04 06:35:17;;;;;;;5.63;5.13;;;12.30;99.90;;;;;;5014163;28;20432;-83
2022/05/04 06:37:43;;;;;;;6.28;5.68;;;12.60;99.90;;;;;;5013636;28;20436;-83
2022/05/04 06:40:09;;;;;;;6.72;6.15;;;12.40;99.90;;;;;;5013943;28;20852;-83
2022/05/04 06:42:35;;;;;;;7.43;6.70;;;12.20;99.90;;;;;;5014232;28;20477;-84
2022/05/04 06:45:02;;;;;;;7.88;7.20;;;12.00;99.90;;;;;;5014323;28;20416;-83
2022/05/04 06:47:28;;;;;;;7.95;6.60;;;11.90;99.90;;;;;;5014449;28;20488;-84
2022/05/04 06:49:53;;;;;;;6.67;6.07;;;12.20;99.90;;;;;;5012436;28;20485;-83
2022/05/04 06:52:19;;;;;;;7.03;6.33;;;12.40;99.90;;;;;;5004560;28;20402;-82
2022/05/04 06:54:45;;;;;;;7.87;7.07;;;12.70;99.90;;;;;;4997354;28;20405;-83
2022/05/04 06:57:10;;;;;;;7.93;7.23;;;12.90;99.90;;;;;;5007439;28;20915;-82
2022/05/04 06:59:36;;;;;;;9.55;8.07;;;13.30;99.90;;;;;;4998470;28;20390;-82
2022/05/04 07:02:02;;;;;;;8.30;7.60;;;12.70;99.90;;;;;;5011082;28;20409;-86
2022/05/04 07:04:28;;;;;;;7.38;6.70;;;12.50;99.90;;;;;;5005784;28;20392;-82
2022/05/04 07:06:53;;;;;;;8.00;7.30;;;12.80;99.90;;;;;;5013859;28;20762;-83
2022/05/04 07:09:19;;;;;;;8.57;7.77;;;12.90;99.90;;;;;;5013895;28;20445;-83
2022/05/04 07:11:45;;;;;;;9.65;8.23;;;13.00;99.90;;;;;;5013133;28;20380;-83
2022/05/04 07:14:10;;;;;;;9.98;8.95;;;13.00;99.90;;;;;;4999683;28;20403;-83
2022/05/04 07:16:36;;;;;;;11.45;9.75;;;12.90;99.90;;;;;;4994282;28;20469;-83
2022/05/04 07:19:02;;;;;;;8.95;8.25;;;12.90;99.90;;;;;;5011185;28;20475;-84
2022/05/04 07:21:28;;;;;;;9.00;8.30;;;12.90;99.90;;;;;;5013422;28;20381;-83
2022/05/04 07:23:54;;;;;;;7.95;7.35;;;12.80;99.90;;;;;;5012368;28;20878;-84
2022/05/04 07:26:20;;;;;;;10.05;9.05;;;13.30;99.90;;;;;;5011076;28;20413;-84
2022/05/04 07:28:45;;;;;;;7.80;7.20;;;13.30;99.90;;;;;;5013210;28;20874;-83
2022/05/04 07:31:11;;;;;;;8.40;7.70;;;13.50;99.90;;;;;;5013330;28;20384;-84
2022/05/04 07:33:36;;;;;;;12.13;7.77;;;13.60;99.90;;;;;;5013455;28;20492;-84
2022/05/04 07:36:02;;;;;;;8.23;7.60;;;13.70;99.90;;;;;;5013011;28;20387;-84
2022/05/04 07:38:28;;;;;;;8.30;7.70;;;13.80;99.90;;;;;;5027891;28;20417;-85
2022/05/04 07:43:38;;;;;;;8.88;8.07;;;13.80;99.90;;;;;;5012112;28;20431;-87
2022/05/04 07:46:03;;;;;;;7.97;7.38;;;13.80;99.90;;;;;;5012183;28;20381;-86
2022/05/04 07:48:29;;;;;;;8.27;7.57;;;13.90;99.90;;;;;;5012723;28;20392;-87
2022/05/04 07:50:54;;;;;;;7.70;7.20;;;13.80;99.90;;;;;;5012315;28;20400;-86
2022/05/04 07:53:20;;;;;;;8.00;7.30;;;14.00;99.90;;;;;;5011227;28;20969;-88
2022/05/04 07:55:47;;;;;;;7.93;7.33;;;14.10;99.90;;;;;;5012886;28;20415;-86
2022/05/04 07:58:12;;;;;;;7.78;7.18;;;14.20;99.90;;;;;;5012344;28;20408;-87
2022/05/04 08:06:07;;;;;;;7.70;7.00;;;14.70;99.90;;;;;;5010854;28;20447;-87
2022/05/04 08:08:33;;;;;;;7.20;6.60;;;14.70;99.90;;;;;;5013004;28;20483;-87
2022/05/04 08:10:58;;;;;;;7.17;6.57;;;14.80;99.90;;;;;;5012983;28;20873;-86
2022/05/04 08:13:24;;;;;;;7.30;6.80;;;14.80;99.90;;;;;;5013150;28;20876;-87
2022/05/04 08:15:49;;;;;;;7.45;6.85;;;14.80;99.90;;;;;;5012617;28;20393;-86
2022/05/04 08:18:16;;;;;;;7.35;6.68;;;14.90;99.90;;;;;;5012666;28;20409;-88
2022/05/04 08:20:42;;;;;;;7.68;7.07;;;14.90;99.90;;;;;;5012775;28;20381;-87
2022/05/04 08:23:09;;;;;;;7.90;7.30;;;14.90;99.90;;;;;;5012647;28;20861;-87
2022/05/04 08:25:36;;;;;;;7.97;7.20;;;15.00;99.90;;;;;;5011305;28;20384;-88
2022/05/04 08:28:02;;;;;;;7.90;7.30;;;15.00;99.90;;;;;;5002499;28;20447;-87
2022/05/04 08:30:28;;;;;;;7.77;7.07;;;15.10;99.90;;;;;;5013182;28;20457;-88
2022/05/04 08:32:53;;;;;;;7.37;6.87;;;15.30;99.90;;;;;;5012261;28;20388;-87
2022/05/04 08:35:19;;;;;;;8.40;7.70;;;15.30;99.90;;;;;;5012167;28;20389;-87
2022/05/04 08:37:45;;;;;;;9.03;8.13;;;15.50;99.90;;;;;;5011236;28;20412;-87
2022/05/04 08:40:12;;;;;;;8.57;7.97;;;15.70;99.90;;;;;;5012340;28;20443;-87
2022/05/04 08:42:41;;;;;;;9.85;8.85;;;15.80;99.90;;;;;;5012420;28;20385;-88
2022/05/04 08:45:10;;;;;;;9.15;8.38;;;16.00;99.90;;;;;;5012348;28;20447;-87
2022/05/04 08:47:38;;;;;;;8.30;7.60;;;16.10;99.90;;;;;;5012338;28;20464;-86
2022/05/04 08:50:08;;;;;;;7.88;7.18;;;16.20;99.90;;;;;;5014722;28;20391;-87
2022/05/04 08:52:35;;;;;;;9.48;8.18;;;16.40;99.90;;;;;;5016458;28;20435;-87
2022/05/04 08:55:03;;;;;;;7.55;6.95;;;16.40;99.90;;;;;;5015474;28;20423;-88
2022/05/04 08:57:28;;;;;;;7.97;7.18;;;16.40;99.90;;;;;;5015163;28;20782;-89
2022/05/04 08:59:54;;;;;;;9.70;8.00;;;16.50;99.90;;;;;;5014806;28;20395;-87
2022/05/04 09:02:20;;;;;;;8.10;7.35;;;16.60;99.90;;;;;;5015089;28;20392;-88
2022/05/04 09:04:45;;;;;;;13.07;10.38;;;16.60;99.90;;;;;;5014925;28;21000;-88
2022/05/04 09:07:24;;;;;;;12.13;9.80;;;16.90;99.90;;;;;;5014860;28;20393;-89
2022/05/04 09:09:52;;;;;;;7.90;7.10;;;17.00;99.90;;;;;;5014544;28;20746;-88
2022/05/04 09:12:18;;;;;;;11.23;10.07;;;17.10;99.90;;;;;;5014978;28;20384;-87
2022/05/04 09:14:44;;;;;;;8.98;8.27;;;17.20;99.90;;;;;;5013400;28;20389;-88
2022/05/04 09:17:10;;;;;;;7.60;7.07;;;17.00;99.90;;;;;;5015643;28;20381;-88
2022/05/04 09:19:36;;;;;;;8.50;7.68;;;17.10;99.90;;;;;;5015943;28;20384;-88
2022/05/04 09:22:02;;;;;;;8.17;7.57;;;17.20;99.90;;;;;;5015747;28;20393;-88
2022/05/04 09:24:29;;;;;;;10.40;7.90;;;17.40;99.90;;;;;;5016043;28;20392;-88
2022/05/04 09:26:58;;;;;;;7.10;6.50;;;17.50;99.90;;;;;;5015756;28;20388;-89
2022/05/04 09:29:35;;;;;;;6.72;6.13;;;17.60;99.90;;;;;;5016033;28;20385;-88
2022/05/04 09:32:11;;;;;;;6.95;6.45;;;17.70;99.90;;;;;;5015620;28;20439;-89
2022/05/04 09:34:36;;;;;;;6.30;5.80;;;17.60;99.90;;;;;;5015731;28;20724;-88
2022/05/04 09:45:38;;;;;;;9.30;7.35;;;18.10;99.90;;;;;;5012498;28;20384;-89
2022/05/04 09:48:04;;;;;;;8.38;7.53;;;18.20;99.90;;;;;;5015306;28;20389;-88
2022/05/04 09:50:38;;;;;;;6.80;6.20;;;18.50;99.90;;;;;;5015342;28;20427;-89
2022/05/04 09:53:05;;;;;;;6.10;4.93;;;18.20;99.90;;;;;;5014349;28;20472;-88
2022/05/04 09:55:30;;;;;;;5.30;4.80;;;18.10;99.90;;;;;;5015157;28;20400;-88
2022/05/04 09:57:56;;;;;;;4.72;4.32;;;17.80;99.90;;;;;;5013659;28;20416;-88
2022/05/04 10:00:24;;;;;;;4.45;4.05;;;18.00;99.90;;;;;;5014857;28;20381;-88
2022/05/04 10:02:52;;;;;;;4.78;4.30;;;18.50;99.90;;;;;;5015159;28;20392;-89
2022/05/04 10:05:20;;;;;;;4.13;3.80;;;18.70;99.90;;;;;;5014958;28;20749;-88
2022/05/04 10:07:50;;;;;;;3.70;3.40;;;19.00;99.90;;;;;;5015017;28;20381;-89
2022/05/04 10:10:25;;;;;;;4.25;3.90;;;19.10;99.90;;;;;;5015283;28;20935;-88
2022/05/04 10:12:51;;;;;;;4.10;3.70;;;18.90;99.90;;;;;;5014726;28;20443;-90
2022/05/04 10:15:19;;;;;;;3.58;3.28;;;18.50;99.90;;;;;;4998724;28;20394;-88
2022/05/04 10:18:06;;;;;;;5.80;4.25;;;18.90;99.90;;;;;;5005072;28;20450;-89
2022/05/04 10:20:39;;;;;;;4.13;3.83;;;19.10;99.90;;;;;;5006221;28;20373;-90
2022/05/04 10:23:27;;;;;;;4.85;3.75;;;19.20;99.90;;;;;;5004789;28;20396;-88
2022/05/04 10:25:57;;;;;;;4.88;3.55;;;19.30;99.90;;;;;;5014707;28;20385;-89
2022/05/04 10:28:23;;;;;;;4.05;3.65;;;19.30;99.90;;;;;;5014403;28;20393;-89
2022/05/04 10:30:56;;;;;;;4.43;4.10;;;19.70;99.90;;;;;;5014543;28;20384;-89
2022/05/04 10:33:24;;;;;;;6.25;4.78;;;19.50;99.90;;;;;;5014965;28;20389;-89
2022/05/04 10:35:50;;;;;;;5.40;4.83;;;19.80;99.90;;;;;;5014375;28;20388;-90
2022/05/04 10:38:17;;;;;;;4.47;4.17;;;20.30;99.90;;;;;;5014425;28;20913;-90
2022/05/04 10:40:54;;;;;;;4.88;4.38;;;20.60;99.90;;;;;;5014410;28;20792;-90
2022/05/04 10:43:40;;;;;;;3.97;3.67;;;20.50;99.90;;;;;;5014477;28;20396;-89
2022/05/04 10:46:11;;;;;;;4.27;3.37;;;20.50;99.90;;;;;;5014375;28;20419;-89
2022/05/04 10:48:45;;;;;;;3.60;2.63;;;20.80;99.90;;;;;;5014427;28;20866;-89
2022/05/04 10:51:12;;;;;;;2.72;2.53;;;20.60;99.90;;;;;;5014290;28;20404;-89
2022/05/04 10:53:40;;;;;;;2.80;2.60;;;20.40;99.90;;;;;;5014232;28;20476;-90
2022/05/04 10:56:16;;;;;;;3.20;3.00;;;20.30;99.90;;;;;;5029450;28;20407;-89
2022/05/04 10:59:01;;;;;;;2.70;2.50;;;20.20;99.90;;;;;;5013992;28;20897;-89
2022/05/04 11:01:36;;;;;;;3.10;2.80;;;20.00;99.90;;;;;;5013869;28;20851;-90
2022/05/04 11:04:07;;;;;;;6.50;2.67;;;20.40;99.90;;;;;;5014498;28;20443;-90
2022/05/04 11:06:38;;;;;;;3.47;1.50;;;20.20;99.90;;;;;;5014023;28;20897;-90
2022/05/04 11:09:15;;;;;;;2.05;1.25;;;20.20;99.90;;;;;;5013987;28;20385;-89
2022/05/04 11:11:43;;;;;;;6.45;1.63;;;20.30;99.90;;;;;;5013331;28;20384;-90
2022/05/04 11:14:14;;;;;;;2.80;1.30;;;20.20;99.90;;;;;;5013811;28;20439;-89
2022/05/04 11:16:41;;;;;;;2.88;1.58;;;20.50;99.90;;;;;;5012744;28;20878;-89
2022/05/04 11:19:08;;;;;;;2.95;1.45;;;20.30;99.90;;;;;;5013320;28;20898;-89
2022/05/04 11:21:37;;;;;;;7.03;1.70;;;20.60;99.90;;;;;;5013779;28;20385;-89
2022/05/04 11:24:05;;;;;;;3.47;1.63;;;20.50;99.90;;;;;;5012757;28;20404;-89
2022/05/04 11:26:37;;;;;;;1.88;1.33;;;20.30;99.90;;;;;;5012755;28;20928;-88
2022/05/04 11:29:20;;;;;;;2.58;1.50;;;20.20;99.90;;;;;;5013452;28;20404;-90
2022/05/04 11:31:53;;;;;;;5.75;1.77;;;20.00;99.90;;;;;;5013702;28;20890;-90
2022/05/04 11:34:19;;;;;;;3.55;1.52;;;20.00;99.90;;;;;;5013357;28;20468;-89
2022/05/04 11:36:47;;;;;;;4.80;1.50;;;19.40;99.90;;;;;;5005295;28;20818;-89
2022/05/04 11:39:18;;;;;;;4.10;1.70;;;19.10;99.90;;;;;;5013175;28;20816;-90
2022/05/04 11:41:48;;;;;;;2.78;1.45;;;19.10;99.90;;;;;;5013521;28;20878;-90
2022/05/04 11:44:15;;;;;;;2.08;1.50;;;19.20;99.90;;;;;;5028366;28;20393;-89
2022/05/04 11:46:45;;;;;;;2.20;1.70;;;19.50;99.90;;;;;;5013447;28;20422;-89
2022/05/04 11:49:11;;;;;;;4.43;2.63;;;19.30;99.90;;;;;;5013471;28;20392;-90
2022/05/04 11:51:37;;;;;;;4.22;3.70;;;19.40;99.90;;;;;;5013260;28;20396;-89
2022/05/04 11:54:04;;;;;;;2.38;2.17;;;19.10;99.90;;;;;;5013078;28;20495;-89
2022/05/04 11:56:30;;;;;;;2.47;1.92;;;18.80;99.90;;;;;;5009956;28;20408;-89
2022/05/04 11:58:57;;;;;;;4.18;3.60;;;18.50;99.90;;;;;;5013098;28;20817;-88
2022/05/04 12:01:23;;;;;;;4.43;3.10;;;18.60;99.90;;;;;;5013064;28;20381;-88
2022/05/04 12:03:50;;;;;;;2.90;2.55;;;18.30;99.90;;;;;;5012887;28;20455;-88
2022/05/04 12:06:17;;;;;;;3.80;1.80;;;18.20;99.90;;;;;;5013073;28;20459;-88
2022/05/04 12:08:43;;;;;;;2.20;1.60;;;18.20;99.90;;;;;;5013157;28;20408;-88
2022/05/04 12:11:10;;;;;;;1.75;1.58;;;18.50;99.90;;;;;;5013389;28;20480;-88
2022/05/04 12:13:40;;;;;;;2.35;2.00;;;18.30;99.90;;;;;;5010623;28;20878;-88
2022/05/04 12:16:08;;;;;;;3.20;2.90;;;17.80;99.90;;;;;;5012897;28;20479;-89
2022/05/04 12:18:36;;;;;;;2.30;1.60;;;18.40;99.90;;;;;;5013004;28;20817;-89
2022/05/04 12:21:10;;;;;;;2.33;1.33;;;18.80;99.90;;;;;;5012821;28;20435;-88
2022/05/04 12:23:41;;;;;;;1.70;1.30;;;18.80;99.90;;;;;;5012279;28;20724;-88
2022/05/04 12:26:08;;;;;;;2.53;1.30;;;19.00;99.90;;;;;;5012829;28;20430;-88
2022/05/04 12:28:34;;;;;;;1.67;1.50;;;19.40;99.90;;;;;;5012716;28;20434;-89
2022/05/04 12:33:48;;;;;;;1.98;1.77;;;19.30;99.90;;;;;;5012654;28;20473;-89
2022/05/04 12:36:17;;;;;;;2.35;1.90;;;19.40;99.90;;;;;;5012699;28;20416;-88
2022/05/04 12:38:46;;;;;;;4.38;2.10;;;19.40;99.90;;;;;;5012489;28;20412;-88
2022/05/04 12:41:14;;;;;;;2.75;2.25;;;19.80;99.90;;;;;;5012512;28;20377;-88
2022/05/04 12:43:40;;;;;;;2.13;1.75;;;19.80;99.90;;;;;;5012447;28;20388;-87
2022/05/04 12:46:11;;;;;;;2.00;1.80;;;19.80;99.90;;;;;;5012422;28;20408;-88
2022/05/04 12:48:39;;;;;;;2.08;1.60;;;19.60;99.90;;;;;;5012418;28;20399;-87
2022/05/04 12:51:07;;;;;;;2.47;1.73;;;19.60;99.90;;;;;;5012470;28;20393;-88
2022/05/04 12:53:33;;;;;;;2.88;1.85;;;19.70;99.90;;;;;;5027503;28;20389;-88
2022/05/04 12:58:43;;;;;;;1.27;1.10;;;19.40;99.90;;;;;;5012326;28;20407;-89
2022/05/04 13:01:09;;;;;;;2.30;1.73;;;19.40;99.90;;;;;;5012359;28;20389;-88
2022/05/04 13:03:35;;;;;;;4.07;3.65;;;19.50;99.90;;;;;;5012190;28;20385;-88
2022/05/04 13:06:01;;;;;;;3.97;2.90;;;19.50;99.90;;;;;;5012306;28;20531;-88
2022/05/04 13:08:27;;;;;;;2.20;1.97;;;19.40;99.90;;;;;;5012080;28;20388;-88
2022/05/04 13:10:53;;;;;;;1.37;1.27;;;19.20;99.90;;;;;;5012339;28;20958;-88
2022/05/04 13:13:21;;;;;;;2.67;1.30;;;19.40;99.90;;;;;;5012246;28;20399;-89
2022/05/04 13:15:48;;;;;;;1.90;1.20;;;19.20;99.90;;;;;;5012224;28;20393;-88
2022/05/04 13:18:14;;;;;;;1.67;0.90;;;19.20;99.90;;;;;;5012366;28;20901;-88
2022/05/04 13:20:40;;;;;;;1.30;0.90;;;19.40;99.90;;;;;;5012041;28;20435;-89
2022/05/04 13:23:07;;;;;;;1.80;1.17;;;19.70;99.90;;;;;;5012126;28;20393;-88
2022/05/04 13:25:33;;;;;;;2.03;1.40;;;19.70;99.90;;;;;;5011976;28;20809;-87